sensor_id;sensor_type;location;lat;lon;timestamp;P1;durP1;ratioP1;P2;durP2;ratioP2
46491;SDS011;32206;51.446;6.792;2023-01-16T02:03:15;3.53;;;1.23;;
46491;SDS011;32206;51.446;6.792;2023-01-16T02:09:09;6.10;;;2.38;;
46491;SDS011;32206;51.446;6.792;2023-01-16T02:14:58;3.05;;;0.68;;
46491;SDS011;32206;51.446;6.792;2023-01-16T02:17:23;4.25;;;1.17;;
46491;SDS011;32206;51.446;6.792;2023-01-16T02:30:22;2.35;;;0.68;;
46491;SDS011;32206;51.446;6.792;2023-01-16T02:36:08;2.72;;;0.80;;
46491;SDS011;32206;51.446;6.792;2023-01-16T02:41:30;6.43;;;1.10;;
46491;SDS011;32206;51.446;6.792;2023-01-16T02:57:16;4.95;;;0.80;;
46491;SDS011;32206;51.446;6.792;2023-01-16T03:03:16;1.63;;;0.63;;
46491;SDS011;32206;51.446;6.792;2023-01-16T03:05:57;5.93;;;1.00;;
46491;SDS011;32206;51.446;6.792;2023-01-16T03:08:56;1.83;;;0.73;;
46491;SDS011;32206;51.446;6.792;2023-01-16T03:11:31;2.03;;;0.88;;
46491;SDS011;32206;51.446;6.792;2023-01-16T03:26:49;3.42;;;0.70;;
46491;SDS011;32206;51.446;6.792;2023-01-16T03:35:03;2.75;;;0.85;;
46491;SDS011;32206;51.446;6.792;2023-01-16T03:37:47;3.70;;;0.70;;
46491;SDS011;32206;51.446;6.792;2023-01-16T03:40:18;2.55;;;1.92;;
46491;SDS011;32206;51.446;6.792;2023-01-16T03:42:56;3.28;;;0.90;;
46491;SDS011;32206;51.446;6.792;2023-01-16T03:45:36;1.15;;;0.50;;
46491;SDS011;32206;51.446;6.792;2023-01-16T03:48:06;4.05;;;0.80;;
46491;SDS011;32206;51.446;6.792;2023-01-16T03:51:19;2.50;;;0.80;;
46491;SDS011;32206;51.446;6.792;2023-01-16T03:57:22;1.08;;;0.63;;
46491;SDS011;32206;51.446;6.792;2023-01-16T04:12:10;1.88;;;0.50;;
46491;SDS011;32206;51.446;6.792;2023-01-16T04:14:39;0.70;;;0.50;;
46491;SDS011;32206;51.446;6.792;2023-01-16T04:17:07;0.85;;;0.55;;
46491;SDS011;32206;51.446;6.792;2023-01-16T04:19:33;0.80;;;0.52;;
46491;SDS011;32206;51.446;6.792;2023-01-16T04:22:03;2.15;;;0.50;;
46491;SDS011;32206;51.446;6.792;2023-01-16T04:24:50;0.50;;;0.50;;
46491;SDS011;32206;51.446;6.792;2023-01-16T04:27:17;2.08;;;0.43;;
46491;SDS011;32206;51.446;6.792;2023-01-16T04:29:43;3.28;;;0.73;;
46491;SDS011;32206;51.446;6.792;2023-01-16T04:38:44;1.45;;;0.30;;
46491;SDS011;32206;51.446;6.792;2023-01-16T04:41:10;1.95;;;1.10;;
46491;SDS011;32206;51.446;6.792;2023-01-16T04:43:35;1.58;;;0.43;;
46491;SDS011;32206;51.446;6.792;2023-01-16T04:46:07;2.65;;;0.93;;
46491;SDS011;32206;51.446;6.792;2023-01-16T04:48:33;0.98;;;0.40;;
46491;SDS011;32206;51.446;6.792;2023-01-16T04:50:58;1.13;;;0.40;;
46491;SDS011;32206;51.446;6.792;2023-01-16T04:56:46;0.50;;;0.50;;
46491;SDS011;32206;51.446;6.792;2023-01-16T04:59:12;1.30;;;0.60;;
46491;SDS011;32206;51.446;6.792;2023-01-16T05:11:13;3.00;;;0.50;;
46491;SDS011;32206;51.446;6.792;2023-01-16T05:13:39;2.33;;;0.40;;
46491;SDS011;32206;51.446;6.792;2023-01-16T05:16:04;0.98;;;0.55;;
46491;SDS011;32206;51.446;6.792;2023-01-16T05:18:31;3.10;;;0.73;;
46491;SDS011;32206;51.446;6.792;2023-01-16T05:20:56;1.60;;;0.43;;
46491;SDS011;32206;51.446;6.792;2023-01-16T05:26:44;3.15;;;0.70;;
46491;SDS011;32206;51.446;6.792;2023-01-16T05:29:10;1.17;;;0.90;;
46491;SDS011;32206;51.446;6.792;2023-01-16T05:34:58;1.85;;;0.50;;
46491;SDS011;32206;51.446;6.792;2023-01-16T05:37:27;3.35;;;0.57;;
46491;SDS011;32206;51.446;6.792;2023-01-16T05:43:15;1.50;;;0.85;;
46491;SDS011;32206;51.446;6.792;2023-01-16T05:45:40;3.75;;;0.70;;
46491;SDS011;32206;51.446;6.792;2023-01-16T05:48:06;3.30;;;1.05;;
46491;SDS011;32206;51.446;6.792;2023-01-16T05:50:32;2.88;;;0.60;;
46491;SDS011;32206;51.446;6.792;2023-01-16T05:52:58;5.80;;;0.65;;
46491;SDS011;32206;51.446;6.792;2023-01-16T05:55:24;0.80;;;0.73;;
46491;SDS011;32206;51.446;6.792;2023-01-16T05:57:50;2.05;;;0.98;;
46491;SDS011;32206;51.446;6.792;2023-01-16T06:00:15;2.85;;;0.60;;
46491;SDS011;32206;51.446;6.792;2023-01-16T06:06:04;1.90;;;0.50;;
46491;SDS011;32206;51.446;6.792;2023-01-16T06:15:14;2.35;;;0.60;;
46491;SDS011;32206;51.446;6.792;2023-01-16T06:21:02;0.57;;;0.57;;
46491;SDS011;32206;51.446;6.792;2023-01-16T06:23:28;2.83;;;0.73;;
46491;SDS011;32206;51.446;6.792;2023-01-16T06:25:55;2.80;;;0.57;;
46491;SDS011;32206;51.446;6.792;2023-01-16T06:28:21;0.57;;;0.50;;
46491;SDS011;32206;51.446;6.792;2023-01-16T06:30:49;1.40;;;0.52;;
46491;SDS011;32206;51.446;6.792;2023-01-16T06:36:42;2.17;;;0.88;;
46491;SDS011;32206;51.446;6.792;2023-01-16T06:39:10;6.45;;;0.90;;
46491;SDS011;32206;51.446;6.792;2023-01-16T06:41:35;0.90;;;0.50;;
46491;SDS011;32206;51.446;6.792;2023-01-16T06:47:23;1.58;;;0.50;;
46491;SDS011;32206;51.446;6.792;2023-01-16T06:49:49;1.23;;;0.55;;
46491;SDS011;32206;51.446;6.792;2023-01-16T06:52:15;2.08;;;0.50;;
46491;SDS011;32206;51.446;6.792;2023-01-16T07:07:35;1.25;;;0.93;;
46491;SDS011;32206;51.446;6.792;2023-01-16T07:23:31;1.88;;;0.50;;
46491;SDS011;32206;51.446;6.792;2023-01-16T07:25:59;1.58;;;1.38;;
46491;SDS011;32206;51.446;6.792;2023-01-16T07:28:29;1.02;;;0.60;;
46491;SDS011;32206;51.446;6.792;2023-01-16T07:30:55;1.88;;;0.52;;
46491;SDS011;32206;51.446;6.792;2023-01-16T07:39:41;3.72;;;0.85;;
46491;SDS011;32206;51.446;6.792;2023-01-16T07:42:07;1.92;;;0.88;;
46491;SDS011;32206;51.446;6.792;2023-01-16T07:44:33;3.60;;;0.90;;
46491;SDS011;32206;51.446;6.792;2023-01-16T07:46:58;3.13;;;0.90;;
46491;SDS011;32206;51.446;6.792;2023-01-16T07:52:46;3.05;;;1.17;;
46491;SDS011;32206;51.446;6.792;2023-01-16T08:01:56;1.58;;;1.05;;
46491;SDS011;32206;51.446;6.792;2023-01-16T08:07:44;1.27;;;0.90;;
46491;SDS011;32206;51.446;6.792;2023-01-16T08:10:11;4.63;;;1.17;;
46491;SDS011;32206;51.446;6.792;2023-01-16T08:12:37;3.08;;;0.93;;
46491;SDS011;32206;51.446;6.792;2023-01-16T08:15:04;1.65;;;0.93;;
46491;SDS011;32206;51.446;6.792;2023-01-16T08:17:30;2.38;;;1.00;;
46491;SDS011;32206;51.446;6.792;2023-01-16T08:19:55;0.80;;;0.75;;
46491;SDS011;32206;51.446;6.792;2023-01-16T08:25:53;1.00;;;0.70;;
46491;SDS011;32206;51.446;6.792;2023-01-16T08:28:18;1.75;;;0.82;;
46491;SDS011;32206;51.446;6.792;2023-01-16T08:30:44;3.55;;;0.80;;
46491;SDS011;32206;51.446;6.792;2023-01-16T08:36:32;3.13;;;1.02;;
46491;SDS011;32206;51.446;6.792;2023-01-16T08:38:57;3.60;;;1.17;;
46491;SDS011;32206;51.446;6.792;2023-01-16T08:51:30;2.80;;;0.65;;
46491;SDS011;32206;51.446;6.792;2023-01-16T08:53:56;4.47;;;1.70;;
46491;SDS011;32206;51.446;6.792;2023-01-16T08:56:23;0.60;;;0.60;;
46491;SDS011;32206;51.446;6.792;2023-01-16T09:02:11;3.58;;;0.65;;
46491;SDS011;32206;51.446;6.792;2023-01-16T09:04:37;2.55;;;0.70;;
46491;SDS011;32206;51.446;6.792;2023-01-16T09:07:02;4.28;;;1.85;;
46491;SDS011;32206;51.446;6.792;2023-01-16T09:09:28;1.63;;;0.65;;
46491;SDS011;32206;51.446;6.792;2023-01-16T09:18:26;1.30;;;0.55;;
46491;SDS011;32206;51.446;6.792;2023-01-16T09:20:52;1.70;;;0.80;;
46491;SDS011;32206;51.446;6.792;2023-01-16T09:23:18;2.92;;;0.60;;
46491;SDS011;32206;51.446;6.792;2023-01-16T09:25:43;1.92;;;0.70;;
46491;SDS011;32206;51.446;6.792;2023-01-16T09:28:09;2.15;;;0.70;;
46491;SDS011;32206;51.446;6.792;2023-01-16T09:30:35;1.67;;;0.70;;
46491;SDS011;32206;51.446;6.792;2023-01-16T09:33:00;0.43;;;0.43;;
46491;SDS011;32206;51.446;6.792;2023-01-16T09:48:33;2.00;;;0.73;;
46491;SDS011;32206;51.446;6.792;2023-01-16T09:54:25;0.40;;;0.40;;
46491;SDS011;32206;51.446;6.792;2023-01-16T10:34:10;3.40;;;0.50;;
46491;SDS011;32206;51.446;6.792;2023-01-16T10:36:42;2.13;;;0.75;;
46491;SDS011;32206;51.446;6.792;2023-01-16T10:39:12;0.77;;;0.38;;
46491;SDS011;32206;51.446;6.792;2023-01-16T10:45:16;0.40;;;0.40;;
46491;SDS011;32206;51.446;6.792;2023-01-16T10:48:15;0.35;;;0.35;;
46491;SDS011;32206;51.446;6.792;2023-01-16T10:54:35;2.40;;;0.30;;
46491;SDS011;32206;51.446;6.792;2023-01-16T11:03:49;0.85;;;0.30;;
46491;SDS011;32206;51.446;6.792;2023-01-16T11:06:20;0.43;;;0.43;;
46491;SDS011;32206;51.446;6.792;2023-01-16T11:08:52;1.85;;;0.50;;
46491;SDS011;32206;51.446;6.792;2023-01-16T11:11:33;0.57;;;0.43;;
46491;SDS011;32206;51.446;6.792;2023-01-16T11:17:41;0.93;;;0.43;;
46491;SDS011;32206;51.446;6.792;2023-01-16T11:23:56;1.50;;;1.35;;
46491;SDS011;32206;51.446;6.792;2023-01-16T11:26:27;0.30;;;0.30;;
46491;SDS011;32206;51.446;6.792;2023-01-16T11:28:55;2.72;;;0.40;;
46491;SDS011;32206;51.446;6.792;2023-01-16T11:31:25;0.50;;;0.50;;
46491;SDS011;32206;51.446;6.792;2023-01-16T11:34:03;1.92;;;0.30;;
46491;SDS011;32206;51.446;6.792;2023-01-16T11:39:58;0.20;;;0.20;;
46491;SDS011;32206;51.446;6.792;2023-01-16T11:42:29;1.38;;;0.30;;
46491;SDS011;32206;51.446;6.792;2023-01-16T11:48:36;1.23;;;0.50;;
46491;SDS011;32206;51.446;6.792;2023-01-16T11:51:10;2.63;;;0.63;;
46491;SDS011;32206;51.446;6.792;2023-01-16T11:53:38;0.20;;;0.20;;
46491;SDS011;32206;51.446;6.792;2023-01-16T12:30:06;0.65;;;0.40;;
46491;SDS011;32206;51.446;6.792;2023-01-16T12:38:27;0.52;;;0.52;;
46491;SDS011;32206;51.446;6.792;2023-01-16T12:48:06;0.55;;;0.47;;
46491;SDS011;32206;51.446;6.792;2023-01-16T12:51:04;0.63;;;0.40;;
46491;SDS011;32206;51.446;6.792;2023-01-16T13:03:26;0.47;;;0.45;;
46491;SDS011;32206;51.446;6.792;2023-01-16T13:06:03;0.40;;;0.40;;
46491;SDS011;32206;51.446;6.792;2023-01-16T13:08:35;1.63;;;0.43;;
46491;SDS011;32206;51.446;6.792;2023-01-16T13:11:23;0.63;;;0.35;;
46491;SDS011;32206;51.446;6.792;2023-01-16T13:20:56;0.40;;;0.40;;
46491;SDS011;32206;51.446;6.792;2023-01-16T13:26:49;0.95;;;0.50;;
46491;SDS011;32206;51.446;6.792;2023-01-16T13:36:16;0.43;;;0.40;;
46491;SDS011;32206;51.446;6.792;2023-01-16T13:41:43;0.30;;;0.30;;
46491;SDS011;32206;51.446;6.792;2023-01-16T13:44:17;1.10;;;0.57;;
46491;SDS011;32206;51.446;6.792;2023-01-16T13:47:09;0.47;;;0.43;;
46491;SDS011;32206;51.446;6.792;2023-01-16T13:49:37;1.48;;;0.50;;
46491;SDS011;32206;51.446;6.792;2023-01-16T13:55:33;1.15;;;0.40;;
46491;SDS011;32206;51.446;6.792;2023-01-16T13:58:23;3.78;;;0.55;;
46491;SDS011;32206;51.446;6.792;2023-01-16T14:04:32;2.55;;;0.50;;
46491;SDS011;32206;51.446;6.792;2023-01-16T14:06:58;1.02;;;0.60;;
46491;SDS011;32206;51.446;6.792;2023-01-16T14:13:21;1.08;;;0.70;;
46491;SDS011;32206;51.446;6.792;2023-01-16T14:28:59;0.40;;;0.40;;
46491;SDS011;32206;51.446;6.792;2023-01-16T14:35:04;0.40;;;0.40;;
46491;SDS011;32206;51.446;6.792;2023-01-16T14:37:42;0.95;;;0.60;;
46491;SDS011;32206;51.446;6.792;2023-01-16T14:42:54;0.40;;;0.40;;
46491;SDS011;32206;51.446;6.792;2023-01-16T14:45:41;0.73;;;0.70;;
46491;SDS011;32206;51.446;6.792;2023-01-16T14:48:45;1.23;;;0.70;;
46491;SDS011;32206;51.446;6.792;2023-01-16T14:51:31;0.73;;;0.50;;
46491;SDS011;32206;51.446;6.792;2023-01-16T15:07:48;0.50;;;0.50;;
46491;SDS011;32206;51.446;6.792;2023-01-16T15:27:32;0.98;;;0.70;;
46491;SDS011;32206;51.446;6.792;2023-01-16T15:30:04;0.80;;;0.80;;
46491;SDS011;32206;51.446;6.792;2023-01-16T15:36:41;1.70;;;1.25;;
46491;SDS011;32206;51.446;6.792;2023-01-16T15:45:56;1.45;;;1.17;;
46491;SDS011;32206;51.446;6.792;2023-01-16T15:51:54;1.73;;;0.77;;
46491;SDS011;32206;51.446;6.792;2023-01-16T16:00:52;0.88;;;0.70;;
46491;SDS011;32206;51.446;6.792;2023-01-16T16:06:41;2.05;;;0.70;;
46491;SDS011;32206;51.446;6.792;2023-01-16T16:09:40;1.13;;;0.63;;
46491;SDS011;32206;51.446;6.792;2023-01-16T16:11:59;0.85;;;0.70;;
46491;SDS011;32206;51.446;6.792;2023-01-16T16:14:36;0.77;;;0.70;;
46491;SDS011;32206;51.446;6.792;2023-01-16T16:27:11;1.50;;;0.68;;
46491;SDS011;32206;51.446;6.792;2023-01-16T16:29:40;2.90;;;2.60;;
46491;SDS011;32206;51.446;6.792;2023-01-16T16:45:08;2.17;;;1.20;;
46491;SDS011;32206;51.446;6.792;2023-01-16T16:47:35;3.72;;;1.40;;
46491;SDS011;32206;51.446;6.792;2023-01-16T16:53:10;3.35;;;1.90;;
46491;SDS011;32206;51.446;6.792;2023-01-16T16:59:16;1.42;;;1.23;;
46491;SDS011;32206;51.446;6.792;2023-01-16T17:01:51;1.92;;;1.55;;
46491;SDS011;32206;51.446;6.792;2023-01-16T17:06:46;1.93;;;1.33;;
46491;SDS011;32206;51.446;6.792;2023-01-16T17:09:18;1.63;;;1.00;;
46491;SDS011;32206;51.446;6.792;2023-01-16T17:14:40;1.38;;;1.27;;
46491;SDS011;32206;51.446;6.792;2023-01-16T17:17:09;1.27;;;0.95;;
46491;SDS011;32206;51.446;6.792;2023-01-16T17:19:39;2.83;;;1.42;;
46491;SDS011;32206;51.446;6.792;2023-01-16T17:22:04;3.28;;;1.25;;
46491;SDS011;32206;51.446;6.792;2023-01-16T17:24:30;0.95;;;0.95;;
46491;SDS011;32206;51.446;6.792;2023-01-16T17:26:56;1.75;;;1.10;;
46491;SDS011;32206;51.446;6.792;2023-01-16T17:29:21;0.80;;;0.80;;
46491;SDS011;32206;51.446;6.792;2023-01-16T17:35:04;1.27;;;1.20;;
46491;SDS011;32206;51.446;6.792;2023-01-16T17:37:30;2.15;;;1.20;;
46491;SDS011;32206;51.446;6.792;2023-01-16T17:39:56;1.08;;;0.98;;
46491;SDS011;32206;51.446;6.792;2023-01-16T17:42:21;1.70;;;1.05;;
46491;SDS011;32206;51.446;6.792;2023-01-16T17:45:10;1.35;;;0.95;;
46491;SDS011;32206;51.446;6.792;2023-01-16T17:48:11;2.08;;;1.02;;
46491;SDS011;32206;51.446;6.792;2023-01-16T17:50:37;1.45;;;1.30;;
46491;SDS011;32206;51.446;6.792;2023-01-16T17:53:03;1.90;;;1.80;;
46491;SDS011;32206;51.446;6.792;2023-01-16T17:55:29;2.35;;;2.17;;
46491;SDS011;32206;51.446;6.792;2023-01-16T17:58:13;3.85;;;3.15;;
46491;SDS011;32206;51.446;6.792;2023-01-16T18:04:00;4.90;;;3.90;;
46491;SDS011;32206;51.446;6.792;2023-01-16T18:06:26;8.60;;;4.97;;
46491;SDS011;32206;51.446;6.792;2023-01-16T18:08:52;4.88;;;4.00;;
46491;SDS011;32206;51.446;6.792;2023-01-16T18:11:20;4.03;;;3.35;;
46491;SDS011;32206;51.446;6.792;2023-01-16T18:14:05;4.17;;;3.00;;
46491;SDS011;32206;51.446;6.792;2023-01-16T18:16:53;2.97;;;2.75;;
46491;SDS011;32206;51.446;6.792;2023-01-16T18:19:37;5.07;;;3.38;;
46491;SDS011;32206;51.446;6.792;2023-01-16T18:22:03;3.45;;;3.05;;
46491;SDS011;32206;51.446;6.792;2023-01-16T18:24:34;4.00;;;2.92;;
46491;SDS011;32206;51.446;6.792;2023-01-16T18:27:05;4.22;;;3.08;;
46491;SDS011;32206;51.446;6.792;2023-01-16T18:29:33;4.95;;;3.28;;
46491;SDS011;32206;51.446;6.792;2023-01-16T18:35:00;2.58;;;2.38;;
46491;SDS011;32206;51.446;6.792;2023-01-16T18:40:03;2.65;;;2.15;;
46491;SDS011;32206;51.446;6.792;2023-01-16T18:42:54;2.80;;;2.60;;
46491;SDS011;32206;51.446;6.792;2023-01-16T18:45:38;2.70;;;2.47;;
46491;SDS011;32206;51.446;6.792;2023-01-16T18:48:22;5.32;;;2.65;;
46491;SDS011;32206;51.446;6.792;2023-01-16T18:51:10;2.97;;;2.67;;
46491;SDS011;32206;51.446;6.792;2023-01-16T18:53:59;2.95;;;2.72;;
46491;SDS011;32206;51.446;6.792;2023-01-16T18:56:55;4.88;;;3.80;;
46491;SDS011;32206;51.446;6.792;2023-01-16T18:59:41;3.53;;;3.22;;
46491;SDS011;32206;51.446;6.792;2023-01-16T19:02:32;3.08;;;2.78;;
46491;SDS011;32206;51.446;6.792;2023-01-16T19:05:00;7.90;;;4.53;;
46491;SDS011;32206;51.446;6.792;2023-01-16T19:07:27;3.30;;;2.97;;
46491;SDS011;32206;51.446;6.792;2023-01-16T19:09:55;3.38;;;3.08;;
46491;SDS011;32206;51.446;6.792;2023-01-16T19:12:25;5.97;;;4.00;;
46491;SDS011;32206;51.446;6.792;2023-01-16T19:14:55;6.85;;;3.70;;
46491;SDS011;32206;51.446;6.792;2023-01-16T19:17:21;4.88;;;4.00;;
46491;SDS011;32206;51.446;6.792;2023-01-16T19:19:46;6.97;;;5.15;;
46491;SDS011;32206;51.446;6.792;2023-01-16T19:22:12;7.68;;;5.63;;
46491;SDS011;32206;51.446;6.792;2023-01-16T19:24:38;12.63;;;6.10;;
46491;SDS011;32206;51.446;6.792;2023-01-16T19:27:04;13.07;;;6.38;;
46491;SDS011;32206;51.446;6.792;2023-01-16T19:29:30;12.45;;;6.68;;
46491;SDS011;32206;51.446;6.792;2023-01-16T19:31:56;12.57;;;6.15;;
46491;SDS011;32206;51.446;6.792;2023-01-16T19:34:43;8.20;;;5.15;;
46491;SDS011;32206;51.446;6.792;2023-01-16T19:37:09;15.48;;;6.82;;
46491;SDS011;32206;51.446;6.792;2023-01-16T19:39:35;13.63;;;6.03;;
46491;SDS011;32206;51.446;6.792;2023-01-16T19:42:00;9.80;;;5.72;;
46491;SDS011;32206;51.446;6.792;2023-01-16T19:44:45;8.93;;;5.20;;
46491;SDS011;32206;51.446;6.792;2023-01-16T19:47:29;5.40;;;4.40;;
46491;SDS011;32206;51.446;6.792;2023-01-16T19:50:13;6.68;;;4.47;;
46491;SDS011;32206;51.446;6.792;2023-01-16T19:52:39;5.07;;;4.15;;
46491;SDS011;32206;51.446;6.792;2023-01-16T19:55:05;4.15;;;3.75;;
46491;SDS011;32206;51.446;6.792;2023-01-16T19:57:31;4.25;;;3.70;;
46491;SDS011;32206;51.446;6.792;2023-01-16T19:59:56;4.03;;;3.70;;
46491;SDS011;32206;51.446;6.792;2023-01-16T20:02:22;4.30;;;4.00;;
46491;SDS011;32206;51.446;6.792;2023-01-16T20:04:47;3.83;;;3.53;;
46491;SDS011;32206;51.446;6.792;2023-01-16T20:07:13;4.47;;;4.07;;
46491;SDS011;32206;51.446;6.792;2023-01-16T20:09:39;4.60;;;4.30;;
46491;SDS011;32206;51.446;6.792;2023-01-16T20:12:06;7.60;;;5.80;;
46491;SDS011;32206;51.446;6.792;2023-01-16T20:14:50;18.48;;;9.25;;
46491;SDS011;32206;51.446;6.792;2023-01-16T20:17:16;7.95;;;5.93;;
46491;SDS011;32206;51.446;6.792;2023-01-16T20:19:42;18.55;;;10.20;;
46491;SDS011;32206;51.446;6.792;2023-01-16T20:22:20;11.10;;;8.27;;
46491;SDS011;32206;51.446;6.792;2023-01-16T20:24:46;6.82;;;6.15;;
46491;SDS011;32206;51.446;6.792;2023-01-16T20:30:20;6.40;;;5.93;;
46491;SDS011;32206;51.446;6.792;2023-01-16T20:33:04;6.75;;;6.13;;
46491;SDS011;32206;51.446;6.792;2023-01-16T20:42:14;7.00;;;6.32;;
46491;SDS011;32206;51.446;6.792;2023-01-16T20:44:58;6.93;;;6.32;;
46491;SDS011;32206;51.446;6.792;2023-01-16T20:47:43;6.35;;;5.95;;
46491;SDS011;32206;51.446;6.792;2023-01-16T20:56:53;6.10;;;5.55;;
46491;SDS011;32206;51.446;6.792;2023-01-16T20:59:20;4.88;;;4.45;;
46491;SDS011;32206;51.446;6.792;2023-01-16T21:01:46;5.20;;;4.85;;
46491;SDS011;32206;51.446;6.792;2023-01-16T21:04:13;5.50;;;5.13;;
46491;SDS011;32206;51.446;6.792;2023-01-16T21:06:40;4.93;;;4.53;;
46491;SDS011;32206;51.446;6.792;2023-01-16T21:12:28;4.60;;;4.30;;
46491;SDS011;32206;51.446;6.792;2023-01-16T21:15:13;5.55;;;5.15;;
46491;SDS011;32206;51.446;6.792;2023-01-16T21:17:38;5.80;;;5.32;;
46491;SDS011;32206;51.446;6.792;2023-01-16T21:29:34;5.10;;;4.75;;
46491;SDS011;32206;51.446;6.792;2023-01-16T21:32:03;5.57;;;5.07;;
46491;SDS011;32206;51.446;6.792;2023-01-16T21:34:30;5.15;;;4.75;;
46491;SDS011;32206;51.446;6.792;2023-01-16T21:43:42;3.78;;;3.58;;
46491;SDS011;32206;51.446;6.792;2023-01-16T21:46:27;3.72;;;3.42;;
46491;SDS011;32206;51.446;6.792;2023-01-16T21:48:57;3.78;;;3.15;;
46491;SDS011;32206;51.446;6.792;2023-01-16T21:51:27;3.00;;;2.83;;
46491;SDS011;32206;51.446;6.792;2023-01-16T21:53:54;4.50;;;2.42;;
46491;SDS011;32206;51.446;6.792;2023-01-16T21:56:20;2.78;;;2.58;;
46491;SDS011;32206;51.446;6.792;2023-01-16T21:58:52;2.50;;;2.40;;
46491;SDS011;32206;51.446;6.792;2023-01-16T22:01:19;2.50;;;2.22;;
46491;SDS011;32206;51.446;6.792;2023-01-16T22:03:45;2.17;;;2.08;;
46491;SDS011;32206;51.446;6.792;2023-01-16T22:09:33;3.25;;;2.40;;
46491;SDS011;32206;51.446;6.792;2023-01-16T22:11:58;2.90;;;2.70;;
46491;SDS011;32206;51.446;6.792;2023-01-16T22:14:42;2.55;;;2.40;;
46491;SDS011;32206;51.446;6.792;2023-01-16T22:17:27;2.40;;;2.15;;
46491;SDS011;32206;51.446;6.792;2023-01-16T22:32:32;2.58;;;2.47;;
46491;SDS011;32206;51.446;6.792;2023-01-16T22:34:58;2.70;;;2.60;;
46491;SDS011;32206;51.446;6.792;2023-01-16T22:46:57;3.28;;;3.08;;
46491;SDS011;32206;51.446;6.792;2023-01-16T22:49:23;3.10;;;2.90;;
46491;SDS011;32206;51.446;6.792;2023-01-16T23:05:11;4.30;;;4.00;;
46491;SDS011;32206;51.446;6.792;2023-01-16T23:07:37;6.85;;;4.47;;
46491;SDS011;32206;51.446;6.792;2023-01-16T23:10:02;4.30;;;3.90;;
46491;SDS011;32206;51.446;6.792;2023-01-16T23:12:28;11.10;;;4.15;;
46491;SDS011;32206;51.446;6.792;2023-01-16T23:14:54;6.18;;;4.05;;
46491;SDS011;32206;51.446;6.792;2023-01-16T23:20:42;2.88;;;2.67;;
46491;SDS011;32206;51.446;6.792;2023-01-16T23:23:08;5.95;;;3.97;;
46491;SDS011;32206;51.446;6.792;2023-01-16T23:25:34;3.92;;;2.47;;
46491;SDS011;32206;51.446;6.792;2023-01-16T23:27:59;3.83;;;2.97;;
46491;SDS011;32206;51.446;6.792;2023-01-16T23:40:51;2.33;;;2.17;;
46491;SDS011;32206;51.446;6.792;2023-01-16T23:43:16;2.10;;;2.00;;
46491;SDS011;32206;51.446;6.792;2023-01-16T23:49:29;2.40;;;2.20;;
46491;SDS011;32206;51.446;6.792;2023-01-16T23:58:49;5.05;;;2.65;;
